sensor_id;sensor_type;location;lat;lon;timestamp;pressure;altitude;pressure_sealevel;temperature;humidity
34241;BME280;20503;50.200;19.508;2023-05-08T00:00:57;102508.72;;;4.95;100.00
34241;BME280;20503;50.200;19.508;2023-05-08T00:06:05;102511.63;;;5.03;100.00
34241;BME280;20503;50.200;19.508;2023-05-08T00:11:15;102511.89;;;5.00;100.00
34241;BME280;20503;50.200;19.508;2023-05-08T00:16:26;102516.77;;;5.06;100.00
34241;BME280;20503;50.200;19.508;2023-05-08T00:21:36;102515.78;;;5.07;100.00
34241;BME280;20503;50.200;19.508;2023-05-08T00:26:47;102516.00;;;5.15;100.00
34241;BME280;20503;50.200;19.508;2023-05-08T00:31:58;102520.49;;;5.05;100.00
34241;BME280;20503;50.200;19.508;2023-05-08T00:37:09;102523.35;;;5.03;100.00
34241;BME280;20503;50.200;19.508;2023-05-08T00:42:20;102527.30;;;4.99;100.00
34241;BME280;20503;50.200;19.508;2023-05-08T00:47:31;102524.00;;;4.96;100.00
34241;BME280;20503;50.200;19.508;2023-05-08T00:52:41;102522.51;;;4.92;100.00
34241;BME280;20503;50.200;19.508;2023-05-08T00:57:52;102536.07;;;4.92;100.00
34241;BME280;20503;50.200;19.508;2023-05-08T01:03:03;102530.42;;;4.95;100.00
34241;BME280;20503;50.200;19.508;2023-05-08T01:08:13;102541.13;;;4.96;100.00
34241;BME280;20503;50.200;19.508;2023-05-08T01:19:37;102552.44;;;5.01;100.00
34241;BME280;20503;50.200;19.508;2023-05-08T01:34:23;102546.52;;;5.07;100.00
34241;BME280;20503;50.200;19.508;2023-05-08T01:44:46;102548.01;;;5.00;100.00
34241;BME280;20503;50.200;19.508;2023-05-08T01:55:09;102545.47;;;4.88;100.00
34241;BME280;20503;50.200;19.508;2023-05-08T02:00:13;102550.55;;;4.81;100.00
34241;BME280;20503;50.200;19.508;2023-05-08T02:05:17;102560.57;;;4.70;100.00
34241;BME280;20503;50.200;19.508;2023-05-08T02:10:24;102562.56;;;4.68;100.00
34241;BME280;20503;50.200;19.508;2023-05-08T02:15:34;102573.78;;;4.63;100.00
34241;BME280;20503;50.200;19.508;2023-05-08T02:20:45;102569.46;;;4.61;100.00
34241;BME280;20503;50.200;19.508;2023-05-08T02:25:55;102576.02;;;4.58;100.00
34241;BME280;20503;50.200;19.508;2023-05-08T02:31:07;102564.44;;;4.56;100.00
34241;BME280;20503;50.200;19.508;2023-05-08T02:36:17;102571.58;;;4.57;100.00
34241;BME280;20503;50.200;19.508;2023-05-08T02:41:29;102572.57;;;4.56;100.00
34241;BME280;20503;50.200;19.508;2023-05-08T02:47:04;102566.53;;;4.53;100.00
34241;BME280;20503;50.200;19.508;2023-05-08T02:51:59;102558.40;;;4.53;100.00
34241;BME280;20503;50.200;19.508;2023-05-08T03:02:21;102573.20;;;4.49;100.00
34241;BME280;20503;50.200;19.508;2023-05-08T03:07:25;102574.66;;;4.53;100.00
34241;BME280;20503;50.200;19.508;2023-05-08T03:12:33;102571.07;;;4.52;100.00
34241;BME280;20503;50.200;19.508;2023-05-08T03:17:45;102572.48;;;4.47;100.00
34241;BME280;20503;50.200;19.508;2023-05-08T03:22:54;102575.76;;;4.50;100.00
34241;BME280;20503;50.200;19.508;2023-05-08T03:28:05;102583.53;;;4.44;100.00
34241;BME280;20503;50.200;19.508;2023-05-08T03:33:15;102572.48;;;4.36;100.00
34241;BME280;20503;50.200;19.508;2023-05-08T03:38:26;102586.13;;;4.45;100.00
34241;BME280;20503;50.200;19.508;2023-05-08T03:43:37;102584.03;;;4.38;100.00
34241;BME280;20503;50.200;19.508;2023-05-08T03:48:48;102602.54;;;4.33;100.00
34241;BME280;20503;50.200;19.508;2023-05-08T03:53:58;102596.48;;;4.18;100.00
34241;BME280;20503;50.200;19.508;2023-05-08T03:59:16;102608.09;;;4.20;100.00
34241;BME280;20503;50.200;19.508;2023-05-08T04:15:09;102613.52;;;4.20;100.00
34241;BME280;20503;50.200;19.508;2023-05-08T04:20:03;102618.05;;;4.20;100.00
34241;BME280;20503;50.200;19.508;2023-05-08T04:25:05;102622.62;;;4.41;100.00
34241;BME280;20503;50.200;19.508;2023-05-08T04:30:14;102624.59;;;4.39;100.00
34241;BME280;20503;50.200;19.508;2023-05-08T04:35:24;102639.61;;;4.43;100.00
34241;BME280;20503;50.200;19.508;2023-05-08T04:40:35;102645.66;;;4.36;100.00
34241;BME280;20503;50.200;19.508;2023-05-08T04:45:45;102654.65;;;4.58;100.00
34241;BME280;20503;50.200;19.508;2023-05-08T04:50:56;102656.10;;;4.51;100.00
34241;BME280;20503;50.200;19.508;2023-05-08T04:56:07;102660.67;;;4.40;100.00
34241;BME280;20503;50.200;19.508;2023-05-08T05:01:18;102671.05;;;4.46;100.00
34241;BME280;20503;50.200;19.508;2023-05-08T05:06:29;102670.27;;;4.44;100.00
34241;BME280;20503;50.200;19.508;2023-05-08T05:11:39;102674.73;;;4.56;100.00
34241;BME280;20503;50.200;19.508;2023-05-08T05:16:50;102677.91;;;4.61;100.00
34241;BME280;20503;50.200;19.508;2023-05-08T05:22:01;102688.89;;;4.48;100.00
34241;BME280;20503;50.200;19.508;2023-05-08T05:27:12;102697.42;;;4.66;100.00
34241;BME280;20503;50.200;19.508;2023-05-08T05:32:22;102692.73;;;4.79;100.00
34241;BME280;20503;50.200;19.508;2023-05-08T05:37:33;102687.52;;;4.98;100.00
34241;BME280;20503;50.200;19.508;2023-05-08T05:42:48;102696.41;;;4.89;100.00
34241;BME280;20503;50.200;19.508;2023-05-08T05:47:55;102698.27;;;4.88;100.00
34241;BME280;20503;50.200;19.508;2023-05-08T05:53:06;102708.61;;;4.94;100.00
34241;BME280;20503;50.200;19.508;2023-05-08T05:58:16;102707.68;;;5.27;100.00
34241;BME280;20503;50.200;19.508;2023-05-08T06:03:27;102702.37;;;5.78;100.00
34241;BME280;20503;50.200;19.508;2023-05-08T06:08:38;102712.65;;;5.95;100.00
34241;BME280;20503;50.200;19.508;2023-05-08T06:13:49;102711.85;;;6.04;100.00
34241;BME280;20503;50.200;19.508;2023-05-08T06:18:59;102718.03;;;6.77;100.00
34241;BME280;20503;50.200;19.508;2023-05-08T06:24:10;102733.01;;;6.21;100.00
34241;BME280;20503;50.200;19.508;2023-05-08T06:29:21;102744.69;;;5.81;100.00
34241;BME280;20503;50.200;19.508;2023-05-08T06:34:32;102744.69;;;5.81;100.00
34241;BME280;20503;50.200;19.508;2023-05-08T06:39:42;102746.41;;;6.13;100.00
34241;BME280;20503;50.200;19.508;2023-05-08T06:44:53;102745.13;;;5.54;100.00
34241;BME280;20503;50.200;19.508;2023-05-08T06:50:05;102748.76;;;5.75;100.00
34241;BME280;20503;50.200;19.508;2023-05-08T06:55:15;102764.32;;;5.73;100.00
34241;BME280;20503;50.200;19.508;2023-05-08T07:00:26;102770.16;;;6.11;100.00
34241;BME280;20503;50.200;19.508;2023-05-08T07:05:36;102783.01;;;6.30;100.00
34241;BME280;20503;50.200;19.508;2023-05-08T07:10:47;102776.91;;;6.37;100.00
34241;BME280;20503;50.200;19.508;2023-05-08T07:15:58;102766.77;;;6.19;100.00
34241;BME280;20503;50.200;19.508;2023-05-08T07:21:09;102777.72;;;6.28;100.00
34241;BME280;20503;50.200;19.508;2023-05-08T07:26:19;102776.86;;;6.48;100.00
34241;BME280;20503;50.200;19.508;2023-05-08T07:31:30;102773.07;;;7.20;100.00
34241;BME280;20503;50.200;19.508;2023-05-08T07:36:41;102778.64;;;6.38;100.00
34241;BME280;20503;50.200;19.508;2023-05-08T07:41:51;102795.08;;;6.78;100.00
34241;BME280;20503;50.200;19.508;2023-05-08T07:47:02;102788.87;;;7.75;100.00
34241;BME280;20503;50.200;19.508;2023-05-08T07:52:13;102794.77;;;7.01;100.00
34241;BME280;20503;50.200;19.508;2023-05-08T07:57:24;102788.41;;;7.21;100.00
34241;BME280;20503;50.200;19.508;2023-05-08T08:02:34;102793.60;;;6.94;100.00
34241;BME280;20503;50.200;19.508;2023-05-08T08:07:45;102804.84;;;6.80;100.00
34241;BME280;20503;50.200;19.508;2023-05-08T08:12:56;102801.34;;;6.48;100.00
34241;BME280;20503;50.200;19.508;2023-05-08T08:18:07;102812.34;;;6.67;100.00
34241;BME280;20503;50.200;19.508;2023-05-08T08:23:18;102808.75;;;7.17;100.00
34241;BME280;20503;50.200;19.508;2023-05-08T08:28:28;102802.73;;;7.23;100.00
34241;BME280;20503;50.200;19.508;2023-05-08T08:33:39;102795.03;;;7.77;100.00
34241;BME280;20503;50.200;19.508;2023-05-08T08:38:50;102796.39;;;7.43;100.00
34241;BME280;20503;50.200;19.508;2023-05-08T08:44:01;102789.95;;;7.53;100.00
34241;BME280;20503;50.200;19.508;2023-05-08T08:49:12;102789.17;;;8.48;100.00
34241;BME280;20503;50.200;19.508;2023-05-08T08:54:23;102803.02;;;8.92;100.00
34241;BME280;20503;50.200;19.508;2023-05-08T08:59:33;102790.82;;;10.21;100.00
34241;BME280;20503;50.200;19.508;2023-05-08T09:04:44;102790.55;;;9.70;100.00
34241;BME280;20503;50.200;19.508;2023-05-08T09:09:55;102808.85;;;9.70;100.00
34241;BME280;20503;50.200;19.508;2023-05-08T09:15:05;102802.28;;;9.00;100.00
34241;BME280;20503;50.200;19.508;2023-05-08T09:20:16;102815.97;;;8.90;100.00
34241;BME280;20503;50.200;19.508;2023-05-08T09:30:48;102816.32;;;8.40;100.00
34241;BME280;20503;50.200;19.508;2023-05-08T09:35:56;102808.41;;;8.46;100.00
34241;BME280;20503;50.200;19.508;2023-05-08T09:46:21;102808.55;;;8.64;100.00
34241;BME280;20503;50.200;19.508;2023-05-08T09:51:29;102809.70;;;8.61;100.00
34241;BME280;20503;50.200;19.508;2023-05-08T09:56:36;102807.09;;;8.79;100.00
34241;BME280;20503;50.200;19.508;2023-05-08T10:01:42;102813.24;;;9.80;100.00
34241;BME280;20503;50.200;19.508;2023-05-08T10:06:59;102808.80;;;9.26;100.00
34241;BME280;20503;50.200;19.508;2023-05-08T10:12:04;102807.91;;;8.89;100.00
34241;BME280;20503;50.200;19.508;2023-05-08T10:17:24;102807.97;;;9.16;100.00
34241;BME280;20503;50.200;19.508;2023-05-08T10:22:28;102793.77;;;9.03;100.00
34241;BME280;20503;50.200;19.508;2023-05-08T10:32:53;102797.17;;;9.24;100.00
34241;BME280;20503;50.200;19.508;2023-05-08T10:37:59;102799.80;;;9.42;100.00
34241;BME280;20503;50.200;19.508;2023-05-08T10:43:09;102795.97;;;10.24;100.00
34241;BME280;20503;50.200;19.508;2023-05-08T10:48:29;102835.74;;;10.01;78.47
34241;BME280;20503;50.200;19.508;2023-05-08T10:58:57;102803.92;;;9.20;77.76
34241;BME280;20503;50.200;19.508;2023-05-08T11:03:59;102835.42;;;9.24;76.20
34241;BME280;20503;50.200;19.508;2023-05-08T11:09:02;102803.25;;;9.44;75.30
34241;BME280;20503;50.200;19.508;2023-05-08T11:14:13;102809.20;;;9.30;72.65
34241;BME280;20503;50.200;19.508;2023-05-08T11:19:24;102817.41;;;8.85;74.00
34241;BME280;20503;50.200;19.508;2023-05-08T11:24:34;102800.02;;;9.76;71.81
34241;BME280;20503;50.200;19.508;2023-05-08T11:30:16;102792.20;;;9.63;72.82
34241;BME280;20503;50.200;19.508;2023-05-08T11:34:57;102798.22;;;9.40;73.68
34241;BME280;20503;50.200;19.508;2023-05-08T11:45:20;102785.51;;;9.93;72.47
34241;BME280;20503;50.200;19.508;2023-05-08T11:50:28;102782.21;;;9.72;74.27
34241;BME280;20503;50.200;19.508;2023-05-08T11:55:39;102789.13;;;10.11;73.98
34241;BME280;20503;50.200;19.508;2023-05-08T12:00:49;102785.61;;;10.01;73.23
34241;BME280;20503;50.200;19.508;2023-05-08T12:06:00;102783.61;;;10.03;73.39
34241;BME280;20503;50.200;19.508;2023-05-08T12:11:11;102795.44;;;9.76;73.28
34241;BME280;20503;50.200;19.508;2023-05-08T12:16:22;102788.41;;;9.91;72.41
34241;BME280;20503;50.200;19.508;2023-05-08T12:21:32;102780.91;;;10.46;70.77
34241;BME280;20503;50.200;19.508;2023-05-08T12:26:43;102771.61;;;10.56;71.02
34241;BME280;20503;50.200;19.508;2023-05-08T12:31:54;102781.25;;;10.68;69.81
34241;BME280;20503;50.200;19.508;2023-05-08T12:37:04;102772.40;;;10.49;69.90
34241;BME280;20503;50.200;19.508;2023-05-08T12:42:15;102782.66;;;10.29;72.18
34241;BME280;20503;50.200;19.508;2023-05-08T12:47:26;102786.26;;;10.12;72.52
34241;BME280;20503;50.200;19.508;2023-05-08T12:52:37;102764.73;;;10.00;73.45
34241;BME280;20503;50.200;19.508;2023-05-08T12:57:49;102761.68;;;10.38;72.39
34241;BME280;20503;50.200;19.508;2023-05-08T13:02:58;102771.52;;;10.48;69.98
34241;BME280;20503;50.200;19.508;2023-05-08T13:08:09;102772.88;;;10.27;68.50
34241;BME280;20503;50.200;19.508;2023-05-08T13:13:24;102760.44;;;10.75;68.91
34241;BME280;20503;50.200;19.508;2023-05-08T13:23:44;102749.63;;;10.48;67.15
34241;BME280;20503;50.200;19.508;2023-05-08T13:28:52;102764.33;;;10.47;69.72
34241;BME280;20503;50.200;19.508;2023-05-08T13:34:03;102773.80;;;10.35;70.85
34241;BME280;20503;50.200;19.508;2023-05-08T13:39:13;102757.64;;;10.24;71.62
34241;BME280;20503;50.200;19.508;2023-05-08T13:44:24;102761.48;;;10.14;71.59
34241;BME280;20503;50.200;19.508;2023-05-08T13:49:35;102760.57;;;10.48;71.25
34241;BME280;20503;50.200;19.508;2023-05-08T13:54:45;102752.04;;;10.51;71.07
34241;BME280;20503;50.200;19.508;2023-05-08T13:59:56;102755.75;;;10.42;70.26
34241;BME280;20503;50.200;19.508;2023-05-08T14:05:07;102752.70;;;10.28;70.82
34241;BME280;20503;50.200;19.508;2023-05-08T14:10:18;102749.72;;;10.39;71.52
34241;BME280;20503;50.200;19.508;2023-05-08T14:15:29;102749.09;;;10.70;69.58
34241;BME280;20503;50.200;19.508;2023-05-08T14:20:39;102759.63;;;10.57;68.81
34241;BME280;20503;50.200;19.508;2023-05-08T14:25:50;102751.15;;;10.08;70.72
34241;BME280;20503;50.200;19.508;2023-05-08T14:31:01;102754.34;;;9.86;71.47
34241;BME280;20503;50.200;19.508;2023-05-08T14:36:12;102742.30;;;9.96;71.61
34241;BME280;20503;50.200;19.508;2023-05-08T14:41:27;102743.88;;;9.99;72.81
34241;BME280;20503;50.200;19.508;2023-05-08T14:46:33;102744.25;;;10.90;72.05
34241;BME280;20503;50.200;19.508;2023-05-08T14:51:44;102750.96;;;10.95;70.77
34241;BME280;20503;50.200;19.508;2023-05-08T14:56:55;102746.75;;;11.42;66.45
34241;BME280;20503;50.200;19.508;2023-05-08T15:02:06;102750.85;;;11.38;68.37
34241;BME280;20503;50.200;19.508;2023-05-08T15:07:16;102738.52;;;10.75;69.71
34241;BME280;20503;50.200;19.508;2023-05-08T15:12:27;102755.21;;;10.64;69.31
34241;BME280;20503;50.200;19.508;2023-05-08T15:17:37;102757.97;;;10.21;69.05
34241;BME280;20503;50.200;19.508;2023-05-08T15:22:49;102749.59;;;10.23;70.48
34241;BME280;20503;50.200;19.508;2023-05-08T15:27:59;102755.06;;;10.23;70.76
34241;BME280;20503;50.200;19.508;2023-05-08T15:33:10;102765.10;;;9.87;70.85
34241;BME280;20503;50.200;19.508;2023-05-08T15:38:21;102751.83;;;9.92;71.56
34241;BME280;20503;50.200;19.508;2023-05-08T15:43:31;102740.26;;;10.33;70.95
34241;BME280;20503;50.200;19.508;2023-05-08T15:48:42;102741.87;;;10.44;70.79
34241;BME280;20503;50.200;19.508;2023-05-08T15:53:53;102734.70;;;10.68;70.93
34241;BME280;20503;50.200;19.508;2023-05-08T15:59:04;102730.45;;;10.74;69.90
34241;BME280;20503;50.200;19.508;2023-05-08T16:04:14;102718.69;;;10.81;68.07
34241;BME280;20503;50.200;19.508;2023-05-08T16:09:25;102723.26;;;10.47;68.51
34241;BME280;20503;50.200;19.508;2023-05-08T16:14:36;102724.48;;;10.10;70.52
34241;BME280;20503;50.200;19.508;2023-05-08T16:19:46;102721.42;;;9.95;70.77
34241;BME280;20503;50.200;19.508;2023-05-08T16:24:57;102714.23;;;9.94;71.08
34241;BME280;20503;50.200;19.508;2023-05-08T16:30:09;102713.22;;;9.95;71.39
34241;BME280;20503;50.200;19.508;2023-05-08T16:35:19;102712.63;;;10.44;71.22
34241;BME280;20503;50.200;19.508;2023-05-08T16:40:30;102711.06;;;10.42;70.28
34241;BME280;20503;50.200;19.508;2023-05-08T16:45:40;102724.38;;;10.37;71.25
34241;BME280;20503;50.200;19.508;2023-05-08T16:50:52;102718.77;;;10.38;70.72
34241;BME280;20503;50.200;19.508;2023-05-08T16:56:12;102718.55;;;10.14;68.42
34241;BME280;20503;50.200;19.508;2023-05-08T17:01:23;102719.16;;;9.73;69.61
34241;BME280;20503;50.200;19.508;2023-05-08T17:06:34;102716.15;;;9.49;70.46
34241;BME280;20503;50.200;19.508;2023-05-08T17:11:45;102722.77;;;9.29;71.22
34241;BME280;20503;50.200;19.508;2023-05-08T17:16:55;102726.88;;;9.16;71.97
34241;BME280;20503;50.200;19.508;2023-05-08T17:22:06;102727.15;;;9.13;71.93
34241;BME280;20503;50.200;19.508;2023-05-08T17:27:17;102734.20;;;9.16;71.80
34241;BME280;20503;50.200;19.508;2023-05-08T17:32:27;102735.22;;;9.15;71.79
34241;BME280;20503;50.200;19.508;2023-05-08T17:37:38;102731.52;;;9.06;71.54
34241;BME280;20503;50.200;19.508;2023-05-08T17:42:49;102723.63;;;9.03;72.75
34241;BME280;20503;50.200;19.508;2023-05-08T17:47:59;102724.20;;;9.07;72.64
34241;BME280;20503;50.200;19.508;2023-05-08T17:53:10;102723.89;;;9.10;72.63
34241;BME280;20503;50.200;19.508;2023-05-08T17:58:21;102714.37;;;9.14;73.32
34241;BME280;20503;50.200;19.508;2023-05-08T18:03:32;102717.81;;;9.16;73.43
34241;BME280;20503;50.200;19.508;2023-05-08T18:08:44;102724.98;;;9.17;73.50
34241;BME280;20503;50.200;19.508;2023-05-08T18:13:53;102728.53;;;9.00;74.48
34241;BME280;20503;50.200;19.508;2023-05-08T18:19:04;102741.86;;;8.76;75.63
34241;BME280;20503;50.200;19.508;2023-05-08T18:24:15;102737.91;;;8.51;76.63
34241;BME280;20503;50.200;19.508;2023-05-08T18:29:25;102743.12;;;8.26;78.33
34241;BME280;20503;50.200;19.508;2023-05-08T18:34:36;102744.66;;;8.09;79.17
34241;BME280;20503;50.200;19.508;2023-05-08T18:39:47;102736.37;;;7.92;79.89
34241;BME280;20503;50.200;19.508;2023-05-08T18:44:58;102743.23;;;7.77;80.79
34241;BME280;20503;50.200;19.508;2023-05-08T18:50:09;102753.97;;;7.69;81.37
34241;BME280;20503;50.200;19.508;2023-05-08T18:55:20;102755.95;;;7.48;83.43
34241;BME280;20503;50.200;19.508;2023-05-08T19:00:31;102756.57;;;7.12;89.24
34241;BME280;20503;50.200;19.508;2023-05-08T19:05:41;102754.81;;;7.02;87.57
34241;BME280;20503;50.200;19.508;2023-05-08T19:10:52;102753.00;;;7.21;84.63
34241;BME280;20503;50.200;19.508;2023-05-08T19:16:03;102749.84;;;7.16;85.41
34241;BME280;20503;50.200;19.508;2023-05-08T19:21:13;102743.41;;;6.87;87.29
34241;BME280;20503;50.200;19.508;2023-05-08T19:26:24;102748.09;;;7.06;85.67
34241;BME280;20503;50.200;19.508;2023-05-08T19:31:35;102749.78;;;6.97;85.40
34241;BME280;20503;50.200;19.508;2023-05-08T19:36:45;102754.77;;;6.92;85.92
34241;BME280;20503;50.200;19.508;2023-05-08T19:41:56;102742.36;;;6.79;86.58
34241;BME280;20503;50.200;19.508;2023-05-08T19:47:07;102739.93;;;6.76;86.54
34241;BME280;20503;50.200;19.508;2023-05-08T19:52:18;102735.78;;;6.51;89.29
34241;BME280;20503;50.200;19.508;2023-05-08T19:57:29;102731.13;;;6.42;90.43
34241;BME280;20503;50.200;19.508;2023-05-08T20:02:39;102726.34;;;6.55;87.90
34241;BME280;20503;50.200;19.508;2023-05-08T20:07:51;102728.27;;;6.64;87.10
34241;BME280;20503;50.200;19.508;2023-05-08T20:13:01;102721.11;;;6.63;86.79
34241;BME280;20503;50.200;19.508;2023-05-08T20:18:12;102722.39;;;6.59;87.48
34241;BME280;20503;50.200;19.508;2023-05-08T20:23:23;102719.18;;;6.54;88.17
34241;BME280;20503;50.200;19.508;2023-05-08T20:28:34;102714.30;;;6.48;88.79
34241;BME280;20503;50.200;19.508;2023-05-08T20:33:44;102724.35;;;6.57;88.35
34241;BME280;20503;50.200;19.508;2023-05-08T20:38:55;102708.91;;;6.58;88.42
34241;BME280;20503;50.200;19.508;2023-05-08T20:44:05;102707.86;;;6.49;89.35
34241;BME280;20503;50.200;19.508;2023-05-08T20:49:16;102707.41;;;6.44;89.61
34241;BME280;20503;50.200;19.508;2023-05-08T20:54:28;102708.58;;;6.51;90.28
34241;BME280;20503;50.200;19.508;2023-05-08T20:59:38;102705.02;;;6.51;90.05
34241;BME280;20503;50.200;19.508;2023-05-08T21:04:49;102703.93;;;6.42;91.13
34241;BME280;20503;50.200;19.508;2023-05-08T21:09:59;102692.20;;;6.42;91.08
34241;BME280;20503;50.200;19.508;2023-05-08T21:15:10;102689.11;;;6.26;93.19
34241;BME280;20503;50.200;19.508;2023-05-08T21:20:22;102682.62;;;6.17;94.23
34241;BME280;20503;50.200;19.508;2023-05-08T21:25:32;102673.46;;;6.18;94.02
34241;BME280;20503;50.200;19.508;2023-05-08T21:30:43;102684.01;;;6.12;93.92
34241;BME280;20503;50.200;19.508;2023-05-08T21:35:54;102679.55;;;5.90;96.32
34241;BME280;20503;50.200;19.508;2023-05-08T21:41:05;102681.10;;;6.04;95.80
34241;BME280;20503;50.200;19.508;2023-05-08T21:46:15;102684.46;;;6.17;94.42
34241;BME280;20503;50.200;19.508;2023-05-08T21:51:26;102672.20;;;6.22;93.15
34241;BME280;20503;50.200;19.508;2023-05-08T21:56:38;102669.73;;;6.40;91.09
34241;BME280;20503;50.200;19.508;2023-05-08T22:01:47;102673.40;;;6.29;91.38
34241;BME280;20503;50.200;19.508;2023-05-08T22:06:58;102665.08;;;6.31;90.55
34241;BME280;20503;50.200;19.508;2023-05-08T22:12:09;102658.64;;;6.32;89.94
34241;BME280;20503;50.200;19.508;2023-05-08T22:17:19;102663.02;;;6.23;90.38
34241;BME280;20503;50.200;19.508;2023-05-08T22:22:30;102658.48;;;6.03;91.73
34241;BME280;20503;50.200;19.508;2023-05-08T22:27:41;102654.71;;;5.95;92.77
34241;BME280;20503;50.200;19.508;2023-05-08T22:32:56;102658.30;;;5.95;92.42
34241;BME280;20503;50.200;19.508;2023-05-08T22:38:02;102646.01;;;6.01;91.62
34241;BME280;20503;50.200;19.508;2023-05-08T22:43:13;102644.71;;;5.95;91.96
34241;BME280;20503;50.200;19.508;2023-05-08T22:48:24;102645.70;;;5.94;92.14
34241;BME280;20503;50.200;19.508;2023-05-08T22:53:35;102645.49;;;5.86;92.97
34241;BME280;20503;50.200;19.508;2023-05-08T22:58:45;102641.17;;;5.84;93.22
34241;BME280;20503;50.200;19.508;2023-05-08T23:03:56;102640.60;;;5.80;93.30
34241;BME280;20503;50.200;19.508;2023-05-08T23:09:07;102639.88;;;5.78;93.63
34241;BME280;20503;50.200;19.508;2023-05-08T23:14:18;102636.45;;;5.65;94.87
34241;BME280;20503;50.200;19.508;2023-05-08T23:19:28;102636.03;;;5.49;98.19
34241;BME280;20503;50.200;19.508;2023-05-08T23:24:40;102631.38;;;5.41;98.72
34241;BME280;20503;50.200;19.508;2023-05-08T23:29:50;102624.70;;;5.02;100.00
34241;BME280;20503;50.200;19.508;2023-05-08T23:35:01;102625.66;;;5.23;100.00
34241;BME280;20503;50.200;19.508;2023-05-08T23:40:12;102620.42;;;5.31;100.00
34241;BME280;20503;50.200;19.508;2023-05-08T23:45:22;102618.66;;;5.10;100.00
34241;BME280;20503;50.200;19.508;2023-05-08T23:50:33;102613.28;;;5.30;100.00
34241;BME280;20503;50.200;19.508;2023-05-08T23:55:44;102611.90;;;5.36;100.00
